createdAt,value
2023-03-13T00:01:20.012Z,3.60
2023-03-13T00:03:49.566Z,3.80
2023-03-13T00:06:18.329Z,3.60
2023-03-13T00:08:46.534Z,3.60
2023-03-13T00:11:16.289Z,3.60
2023-03-13T00:13:44.770Z,3.60
2023-03-13T00:16:15.298Z,4.50
2023-03-13T00:18:47.117Z,3.50
2023-03-13T00:21:20.500Z,4.50
2023-03-13T00:23:49.402Z,4.70
2023-03-13T00:26:19.963Z,4.50
2023-03-13T00:28:48.127Z,3.50
2023-03-13T00:31:18.744Z,3.60
2023-03-13T00:33:49.143Z,3.70
2023-03-13T00:36:20.601Z,3.90
2023-03-13T00:38:49.117Z,3.60
2023-03-13T00:41:19.131Z,4.90
2023-03-13T00:43:48.597Z,4.70
2023-03-13T00:46:19.325Z,4.90
2023-03-13T00:48:48.872Z,3.60
2023-03-13T00:51:20.293Z,5.20
2023-03-13T00:53:49.283Z,4.50
2023-03-13T00:56:18.927Z,4.30
2023-03-13T00:58:48.866Z,4.20
2023-03-13T01:01:19.445Z,4.50
2023-03-13T01:03:50.184Z,4.70
2023-03-13T01:06:21.875Z,3.60
2023-03-13T01:08:50.418Z,4.30
2023-03-13T01:11:21.127Z,2.90
2023-03-13T01:13:49.829Z,3.90
2023-03-13T01:16:20.443Z,4.70
2023-03-13T01:18:50.737Z,3.60
2023-03-13T01:21:21.257Z,3.70
2023-03-13T01:23:50.524Z,4.40
2023-03-13T01:26:18.693Z,3.50
2023-03-13T01:28:47.449Z,4.00
2023-03-13T01:31:17.785Z,3.70
2023-03-13T01:33:46.942Z,4.90
2023-03-13T01:36:15.481Z,3.40
2023-03-13T01:38:44.893Z,4.20
2023-03-13T01:41:14.009Z,4.00
2023-03-13T01:43:42.104Z,4.50
2023-03-13T01:46:16.484Z,4.60
2023-03-13T01:48:50.649Z,2.70
2023-03-13T01:51:24.221Z,3.50
2023-03-13T01:53:58.669Z,4.10
2023-03-13T01:56:32.669Z,4.60
2023-03-13T01:59:01.701Z,3.40
2023-03-13T02:01:30.708Z,4.40
2023-03-13T02:03:59.932Z,4.20
2023-03-13T02:06:31.795Z,4.80
2023-03-13T02:09:05.588Z,3.30
2023-03-13T02:11:45.069Z,4.00
2023-03-13T02:14:14.752Z,3.20
2023-03-13T02:16:47.774Z,4.40
2023-03-13T02:19:20.729Z,3.20
2023-03-13T02:21:56.397Z,4.40
2023-03-13T02:24:34.565Z,4.60
2023-03-13T02:27:05.144Z,4.90
2023-03-13T02:29:33.700Z,3.20
2023-03-13T02:32:01.759Z,3.20
2023-03-13T02:34:33.911Z,3.10
2023-03-13T02:37:05.771Z,3.10
2023-03-13T02:39:35.348Z,3.00
2023-03-13T02:42:06.014Z,3.10
2023-03-13T02:44:40.112Z,3.10
2023-03-13T02:47:10.016Z,3.20
2023-03-13T02:49:38.974Z,4.30
2023-03-13T02:52:15.260Z,2.40
2023-03-13T02:54:46.662Z,3.90
2023-03-13T02:57:16.424Z,3.80
2023-03-13T02:59:44.611Z,3.10
2023-03-13T03:02:12.690Z,4.00
2023-03-13T03:04:41.627Z,4.80
2023-03-13T03:07:09.979Z,3.10
2023-03-13T03:09:38.100Z,3.60
2023-03-13T03:12:06.846Z,3.30
2023-03-13T03:14:36.993Z,3.10
2023-03-13T03:17:05.392Z,3.10
2023-03-13T03:19:33.601Z,3.10
2023-03-13T03:22:01.876Z,4.10
2023-03-13T03:24:30.201Z,3.20
2023-03-13T03:26:58.291Z,4.00
2023-03-13T03:29:27.772Z,3.20
2023-03-13T03:31:57.573Z,2.20
2023-03-13T03:34:26.028Z,3.20
2023-03-13T03:36:54.558Z,3.20
2023-03-13T03:39:22.760Z,3.80
2023-03-13T03:41:50.952Z,3.30
2023-03-13T03:44:19.221Z,4.00
2023-03-13T03:46:47.360Z,3.30
2023-03-13T03:49:16.796Z,3.70
2023-03-13T03:51:44.961Z,3.50
2023-03-13T03:54:13.193Z,3.20
2023-03-13T03:56:41.268Z,3.20
2023-03-13T03:59:09.278Z,3.20
2023-03-13T04:01:37.453Z,3.20
2023-03-13T04:04:05.651Z,3.20
2023-03-13T04:06:35.210Z,3.20
2023-03-13T04:09:03.593Z,3.10
2023-03-13T04:11:31.929Z,3.30
2023-03-13T04:14:00.127Z,3.20
2023-03-13T04:16:28.317Z,3.20
2023-03-13T04:18:56.540Z,3.20
2023-03-13T04:21:25.429Z,3.10
2023-03-13T04:23:55.123Z,3.30
2023-03-13T04:26:23.719Z,3.20
2023-03-13T04:28:51.811Z,3.20
2023-03-13T04:31:20.023Z,3.20
2023-03-13T04:33:48.152Z,3.40
2023-03-13T04:36:16.300Z,3.30
2023-03-13T04:38:44.416Z,3.30
2023-03-13T04:41:13.917Z,3.50
2023-03-13T04:43:42.138Z,3.50
2023-03-13T04:46:10.375Z,3.40
2023-03-13T04:48:38.506Z,3.40
2023-03-13T04:51:07.075Z,3.40
2023-03-13T04:53:35.228Z,3.50
2023-03-13T04:56:03.493Z,3.50
2023-03-13T04:58:33.291Z,3.60
2023-03-13T05:01:01.582Z,3.70
2023-03-13T05:03:29.781Z,3.50
2023-03-13T05:05:57.934Z,3.60
2023-03-13T05:08:26.083Z,3.60
2023-03-13T05:10:54.120Z,3.60
2023-03-13T05:13:22.255Z,3.60
2023-03-13T05:15:52.014Z,3.70
2023-03-13T05:18:20.255Z,3.70
2023-03-13T05:20:49.134Z,3.70
2023-03-13T05:23:17.649Z,3.60
2023-03-13T05:25:45.844Z,3.80
2023-03-13T05:28:14.115Z,3.80
2023-03-13T05:30:42.340Z,3.70
2023-03-13T05:33:12.148Z,3.80
2023-03-13T05:35:40.587Z,3.80
2023-03-13T05:38:09.130Z,4.00
2023-03-13T05:40:37.509Z,3.90
2023-03-13T05:43:06.081Z,3.80
2023-03-13T05:45:34.581Z,3.80
2023-03-13T05:48:02.989Z,3.90
2023-03-13T05:50:32.830Z,3.90
2023-03-13T05:53:01.094Z,3.90
2023-03-13T05:55:29.357Z,3.90
2023-03-13T05:57:58.044Z,4.00
2023-03-13T06:00:26.833Z,4.40
2023-03-13T06:02:58.286Z,3.80
2023-03-13T06:05:26.557Z,4.10
2023-03-13T06:07:56.333Z,3.90
2023-03-13T06:10:25.024Z,4.10
2023-03-13T06:12:58.820Z,4.00
2023-03-13T06:15:28.344Z,4.10
2023-03-13T06:17:57.142Z,4.20
2023-03-13T06:20:25.450Z,4.20
2023-03-13T06:22:55.775Z,4.70
2023-03-13T06:25:25.646Z,4.20
2023-03-13T06:27:53.998Z,4.30
2023-03-13T06:30:22.570Z,4.30
2023-03-13T06:32:51.472Z,4.40
2023-03-13T06:35:20.114Z,4.40
2023-03-13T06:37:51.311Z,4.40
2023-03-13T06:40:22.254Z,4.80
2023-03-13T06:42:50.593Z,4.80
2023-03-13T06:45:19.105Z,4.60
2023-03-13T06:47:47.411Z,4.60
2023-03-13T06:50:16.034Z,4.70
2023-03-13T06:52:44.532Z,4.70
2023-03-13T06:55:13.935Z,4.70
2023-03-13T06:57:44.117Z,4.80
2023-03-13T07:00:13.567Z,4.80
2023-03-13T07:02:42.112Z,4.70
2023-03-13T07:05:11.572Z,5.00
2023-03-13T07:07:40.315Z,4.90
2023-03-13T07:10:10.801Z,5.20
2023-03-13T07:12:39.758Z,5.10
2023-03-13T07:15:11.129Z,5.20
2023-03-13T07:17:39.677Z,5.30
2023-03-13T07:20:10.850Z,5.50
2023-03-13T07:22:39.404Z,5.40
2023-03-13T07:25:09.792Z,5.70
2023-03-13T07:27:38.847Z,5.80
2023-03-13T07:30:10.775Z,5.90
2023-03-13T07:32:41.773Z,5.50
2023-03-13T07:35:10.241Z,5.80
2023-03-13T07:37:39.369Z,5.80
2023-03-13T07:40:09.889Z,5.90
2023-03-13T07:42:40.895Z,5.90
2023-03-13T07:45:15.493Z,6.60
2023-03-13T07:47:43.938Z,5.90
2023-03-13T07:50:13.067Z,6.20
2023-03-13T07:52:41.929Z,6.20
2023-03-13T07:55:10.889Z,6.30
2023-03-13T07:57:39.109Z,6.30
2023-03-13T08:00:16.472Z,6.40
2023-03-13T08:02:46.091Z,6.40
2023-03-13T08:05:14.400Z,6.60
2023-03-13T08:07:43.369Z,6.70
2023-03-13T08:10:12.428Z,7.00
2023-03-13T08:12:42.606Z,6.60
2023-03-13T08:15:11.501Z,6.50
2023-03-13T08:17:39.643Z,6.70
2023-03-13T08:20:12.145Z,7.10
2023-03-13T08:22:40.437Z,6.80
2023-03-13T08:25:09.103Z,6.90
2023-03-13T08:27:37.794Z,6.90
2023-03-13T08:30:07.457Z,6.90
2023-03-13T08:32:38.231Z,6.90
2023-03-13T08:35:11.641Z,6.60
2023-03-13T08:37:39.951Z,7.00
2023-03-13T08:40:11.600Z,7.00
2023-03-13T08:42:40.627Z,7.10
2023-03-13T08:45:09.988Z,7.00
2023-03-13T08:47:38.260Z,7.10
2023-03-13T08:50:07.498Z,7.10
2023-03-13T08:52:37.484Z,7.00
2023-03-13T08:55:06.729Z,7.00
2023-03-13T08:57:34.941Z,7.10
2023-03-13T09:00:03.687Z,7.70
2023-03-13T09:02:32.117Z,7.40
2023-03-13T09:05:00.475Z,7.10
2023-03-13T09:07:28.958Z,7.10
2023-03-13T09:09:58.998Z,7.50
2023-03-13T09:12:31.185Z,7.10
2023-03-13T09:14:59.700Z,7.10
2023-03-13T09:17:27.853Z,7.20
2023-03-13T09:20:00.476Z,7.50
2023-03-13T09:22:29.225Z,7.10
2023-03-13T09:24:58.759Z,7.20
2023-03-13T09:27:28.277Z,7.20
2023-03-13T09:29:56.389Z,7.30
2023-03-13T09:32:24.770Z,7.30
2023-03-13T09:34:52.949Z,7.00
2023-03-13T09:37:21.115Z,7.30
2023-03-13T09:39:50.275Z,7.30
2023-03-13T09:42:23.344Z,7.30
2023-03-13T09:44:56.672Z,7.50
2023-03-13T09:47:27.849Z,7.30
2023-03-13T09:50:00.933Z,7.30
2023-03-13T09:52:34.618Z,7.60
2023-03-13T09:55:06.545Z,7.30
2023-03-13T09:57:39.212Z,7.50
2023-03-13T10:00:14.887Z,7.50
2023-03-13T10:02:47.175Z,7.60
2023-03-13T10:05:21.898Z,7.70
2023-03-13T10:07:50.997Z,8.10
2023-03-13T10:10:21.864Z,7.90
2023-03-13T10:12:57.390Z,7.80
2023-03-13T10:15:38.154Z,8.30
2023-03-13T10:18:19.726Z,8.40
2023-03-13T10:20:50.822Z,8.00
2023-03-13T10:23:25.280Z,8.00
2023-03-13T10:25:53.486Z,7.90
2023-03-13T10:28:23.652Z,8.40
2023-03-13T10:30:55.631Z,8.20
2023-03-13T10:33:26.943Z,8.20
2023-03-13T10:36:08.612Z,8.10
2023-03-13T10:38:51.355Z,8.10
2023-03-13T10:41:30.742Z,8.10
2023-03-13T10:44:06.104Z,8.20
2023-03-13T10:46:37.033Z,8.30
2023-03-13T10:49:16.046Z,8.20
2023-03-13T10:51:49.890Z,8.30
2023-03-13T10:54:24.642Z,8.30
2023-03-13T10:56:56.545Z,8.30
2023-03-13T10:59:28.203Z,8.30
2023-03-13T11:02:02.135Z,8.50
2023-03-13T11:04:32.949Z,8.30
2023-03-13T11:07:05.076Z,8.30
2023-03-13T11:09:33.849Z,8.50
2023-03-13T11:12:06.758Z,8.20
2023-03-13T11:14:36.874Z,8.20
2023-03-13T11:17:11.540Z,8.20
2023-03-13T11:19:56.704Z,8.10
2023-03-13T11:22:32.258Z,8.60
2023-03-13T11:25:10.898Z,8.00
2023-03-13T11:27:45.877Z,8.10
2023-03-13T11:30:38.413Z,8.10
2023-03-13T11:33:12.413Z,8.20
2023-03-13T11:35:46.929Z,8.10
2023-03-13T11:38:21.430Z,8.10
2023-03-13T11:41:02.096Z,8.00
2023-03-13T11:43:59.872Z,8.10
2023-03-13T11:46:44.095Z,8.20
2023-03-13T11:49:58.152Z,8.20
2023-03-13T11:52:39.623Z,8.20
2023-03-13T11:55:30.768Z,8.20
2023-03-13T11:58:10.807Z,8.20
2023-03-13T12:00:43.134Z,8.20
2023-03-13T12:03:18.112Z,8.30
2023-03-13T12:05:51.693Z,8.30
2023-03-13T12:08:23.081Z,8.40
2023-03-13T12:11:02.178Z,8.30
2023-03-13T12:13:34.120Z,8.20
2023-03-13T12:16:08.178Z,8.20
2023-03-13T12:18:39.734Z,8.20
2023-03-13T12:21:18.801Z,8.40
2023-03-13T12:23:54.648Z,8.20
2023-03-13T12:26:27.230Z,8.20
2023-03-13T12:29:07.478Z,8.20
2023-03-13T12:31:41.361Z,8.20
2023-03-13T12:34:17.500Z,8.20
2023-03-13T12:36:51.058Z,8.30
2023-03-13T12:39:31.485Z,8.30
2023-03-13T12:42:17.702Z,8.40
2023-03-13T12:44:46.190Z,8.30
2023-03-13T12:47:21.582Z,8.30
2023-03-13T12:50:22.352Z,8.50
2023-03-13T12:53:21.587Z,8.30
2023-03-13T12:56:30.016Z,8.20
2023-03-13T12:59:03.044Z,8.30
2023-03-13T13:01:35.228Z,8.30
2023-03-13T13:04:07.433Z,8.30
2023-03-13T13:06:55.190Z,8.40
2023-03-13T13:09:26.296Z,8.40
2023-03-13T13:11:59.141Z,8.40
2023-03-13T13:15:04.195Z,8.30
2023-03-13T13:17:56.468Z,8.30
2023-03-13T13:20:46.582Z,8.30
2023-03-13T13:23:35.015Z,8.30
2023-03-13T13:26:48.699Z,8.30
2023-03-13T13:29:59.799Z,8.40
2023-03-13T13:32:41.954Z,8.30
2023-03-13T13:35:29.703Z,8.30
2023-03-13T13:38:29.110Z,8.40
2023-03-13T13:41:03.611Z,8.50
2023-03-13T13:43:34.729Z,8.50
2023-03-13T13:53:08.642Z,8.50
2023-03-13T13:55:45.432Z,8.40
2023-03-13T13:58:18.529Z,8.40
2023-03-13T14:00:51.921Z,8.50
2023-03-13T14:03:22.814Z,8.50
2023-03-13T14:05:55.121Z,8.50
2023-03-13T14:08:27.105Z,8.50
2023-03-13T14:11:11.165Z,8.50
2023-03-13T14:13:39.610Z,8.40
2023-03-13T14:16:25.692Z,8.40
2023-03-13T14:18:54.595Z,8.40
2023-03-13T14:21:23.965Z,8.40
2023-03-13T14:23:52.402Z,8.50
2023-03-13T14:26:23.633Z,8.50
2023-03-13T14:28:53.277Z,8.50
2023-03-13T14:31:26.953Z,8.50
2023-03-13T14:33:56.365Z,8.50
2023-03-13T14:36:24.628Z,8.50
2023-03-13T14:38:54.724Z,8.50
2023-03-13T14:41:30.304Z,8.50
2023-03-13T14:44:05.854Z,8.50
2023-03-13T14:46:36.125Z,8.50
2023-03-13T14:49:09.604Z,8.50
2023-03-13T14:51:41.218Z,8.60
2023-03-13T14:54:26.542Z,8.60
2023-03-13T14:57:07.445Z,8.60
2023-03-13T14:59:35.606Z,8.60
2023-03-13T15:02:13.342Z,8.60
2023-03-13T15:05:01.316Z,8.60
2023-03-13T15:07:37.476Z,8.70
2023-03-13T15:10:20.336Z,8.70
2023-03-13T15:12:50.289Z,8.70
2023-03-13T15:15:18.686Z,8.70
2023-03-13T15:17:46.807Z,8.70
2023-03-13T15:20:16.358Z,8.70
2023-03-13T15:22:46.580Z,8.70
2023-03-13T15:25:18.215Z,8.70
2023-03-13T15:27:46.386Z,8.70
2023-03-13T15:30:18.923Z,8.70
2023-03-13T15:32:48.198Z,8.80
2023-03-13T15:35:25.872Z,8.80
2023-03-13T15:37:54.289Z,8.80
2023-03-13T15:40:24.409Z,8.80
2023-03-13T15:42:52.906Z,8.80
2023-03-13T15:45:22.942Z,8.80
2023-03-13T15:47:50.995Z,8.80
2023-03-13T15:50:22.458Z,8.80
2023-03-13T15:52:50.560Z,8.90
2023-03-13T15:55:18.665Z,8.90
2023-03-13T15:57:48.035Z,8.90
2023-03-13T16:00:20.879Z,8.90
2023-03-13T16:02:51.017Z,8.90
2023-03-13T16:05:19.496Z,8.90
2023-03-13T16:07:47.497Z,8.80
2023-03-13T16:10:23.849Z,8.90
2023-03-13T16:12:53.328Z,8.90
2023-03-13T16:15:21.988Z,8.90
2023-03-13T16:17:51.388Z,9.00
2023-03-13T16:20:22.157Z,9.00
2023-03-13T16:22:53.024Z,9.00
2023-03-13T16:25:21.894Z,9.00
2023-03-13T16:27:50.114Z,9.00
2023-03-13T16:30:19.841Z,9.00
2023-03-13T16:32:47.932Z,9.10
2023-03-13T16:35:17.938Z,9.10
2023-03-13T16:37:46.404Z,9.00
2023-03-13T16:40:17.821Z,9.10
2023-03-13T16:42:45.950Z,9.10
2023-03-13T16:45:14.535Z,9.10
2023-03-13T16:47:43.436Z,9.10
2023-03-13T16:50:23.708Z,9.10
2023-03-13T16:52:52.393Z,9.10
2023-03-13T16:55:21.056Z,9.10
2023-03-13T16:57:49.123Z,9.10
2023-03-13T17:00:21.420Z,9.20
2023-03-13T17:02:50.235Z,9.20
2023-03-13T17:05:20.095Z,9.20
2023-03-13T17:07:50.222Z,9.20
2023-03-13T17:10:21.246Z,9.20
2023-03-13T17:12:50.176Z,9.20
2023-03-13T17:15:18.679Z,9.10
2023-03-13T17:17:51.709Z,9.10
2023-03-13T17:20:23.657Z,9.20
2023-03-13T17:22:52.226Z,9.10
2023-03-13T17:25:20.494Z,9.10
2023-03-13T17:27:48.668Z,9.10
2023-03-13T17:30:21.411Z,9.10
2023-03-13T17:32:50.391Z,9.10
2023-03-13T17:35:19.258Z,9.10
2023-03-13T17:37:48.969Z,9.10
2023-03-13T17:40:19.958Z,9.00
2023-03-13T17:42:48.101Z,9.00
2023-03-13T17:45:16.138Z,9.00
2023-03-13T17:47:44.055Z,9.00
2023-03-13T17:50:24.123Z,8.90
2023-03-13T17:52:53.585Z,8.90
2023-03-13T17:55:21.545Z,8.90
2023-03-13T17:57:49.540Z,8.90
2023-03-13T18:00:25.872Z,8.90
2023-03-13T18:02:53.842Z,8.90
2023-03-13T18:05:22.178Z,8.90
2023-03-13T18:07:50.868Z,8.90
2023-03-13T18:10:24.145Z,8.90
2023-03-13T18:12:52.835Z,9.00
2023-03-13T18:15:22.077Z,8.90
2023-03-13T18:17:50.659Z,8.90
2023-03-13T18:20:20.346Z,8.90
2023-03-13T18:22:48.342Z,9.00
2023-03-13T18:25:16.668Z,9.00
2023-03-13T18:27:45.989Z,9.00
2023-03-13T18:30:18.564Z,9.00
2023-03-13T18:32:47.264Z,9.00
2023-03-13T18:35:15.949Z,9.00
2023-03-13T18:37:45.845Z,9.00
2023-03-13T18:40:22.210Z,9.00
2023-03-13T18:42:51.930Z,9.10
2023-03-13T18:45:21.851Z,9.00
2023-03-13T18:47:49.803Z,9.00
2023-03-13T18:50:23.671Z,9.00
2023-03-13T18:52:51.935Z,9.00
2023-03-13T18:55:20.312Z,9.00
2023-03-13T18:57:49.010Z,9.10
2023-03-13T19:00:21.111Z,9.10
2023-03-13T19:02:49.557Z,9.10
2023-03-13T19:05:18.137Z,9.10
2023-03-13T19:07:46.215Z,9.10
2023-03-13T19:10:20.074Z,9.10
2023-03-13T19:12:48.053Z,9.10
2023-03-13T19:15:16.328Z,9.10
2023-03-13T19:17:46.210Z,9.10
2023-03-13T19:20:16.977Z,9.10
2023-03-13T19:22:44.973Z,9.10
2023-03-13T19:25:16.786Z,9.10
2023-03-13T19:27:45.180Z,9.10
2023-03-13T19:30:17.761Z,9.10
2023-03-13T19:32:47.065Z,9.10
2023-03-13T19:35:18.724Z,9.20
2023-03-13T19:37:47.078Z,9.20
2023-03-13T19:40:20.001Z,9.20
2023-03-13T19:42:47.976Z,9.10
2023-03-13T19:45:19.595Z,9.20
2023-03-13T19:47:49.572Z,9.20
2023-03-13T19:50:20.137Z,9.20
2023-03-13T19:52:48.109Z,9.20
2023-03-13T19:55:16.195Z,9.20
2023-03-13T19:57:44.139Z,9.20
2023-03-13T20:00:20.460Z,9.30
2023-03-13T20:02:52.216Z,9.30
2023-03-13T20:05:20.283Z,9.20
2023-03-13T20:07:48.759Z,9.30
2023-03-13T20:10:17.174Z,9.30
2023-03-13T20:12:45.148Z,9.30
2023-03-13T20:15:14.493Z,9.30
2023-03-13T20:17:42.436Z,9.30
2023-03-13T20:20:13.759Z,9.30
2023-03-13T20:22:42.098Z,9.40
2023-03-13T20:25:11.533Z,9.30
2023-03-13T20:27:40.137Z,9.30
2023-03-13T20:30:09.560Z,9.30
2023-03-13T20:32:49.119Z,9.30
2023-03-13T20:35:26.582Z,9.30
2023-03-13T20:37:54.668Z,9.30
2023-03-13T20:40:23.067Z,9.30
2023-03-13T20:42:51.216Z,9.30
2023-03-13T20:45:19.345Z,9.30
2023-03-13T20:47:47.255Z,9.40
2023-03-13T20:50:16.061Z,9.40
2023-03-13T20:52:46.400Z,9.40
2023-03-13T20:55:14.515Z,9.40
2023-03-13T20:57:42.800Z,9.40
2023-03-13T21:00:12.998Z,9.50
2023-03-13T21:02:41.378Z,9.50
2023-03-13T21:05:10.201Z,9.60
2023-03-13T21:07:38.273Z,9.60
2023-03-13T21:10:09.138Z,9.60
2023-03-13T21:12:37.404Z,9.60
2023-03-13T21:15:06.220Z,9.60
2023-03-13T21:17:34.590Z,9.60
2023-03-13T21:20:02.869Z,9.70
2023-03-13T21:22:31.101Z,9.50
2023-03-13T21:24:59.351Z,9.70
2023-03-13T21:27:28.834Z,9.70
2023-03-13T21:29:56.879Z,9.70
2023-03-13T21:32:25.198Z,9.70
2023-03-13T21:34:53.641Z,9.80
2023-03-13T21:37:21.708Z,9.70
2023-03-13T21:39:52.309Z,9.70
2023-03-13T21:42:20.992Z,9.70
2023-03-13T21:44:50.413Z,9.70
2023-03-13T21:47:24.249Z,9.70
2023-03-13T21:49:52.401Z,9.70
2023-03-13T21:52:21.450Z,9.70
2023-03-13T21:54:50.139Z,9.70
2023-03-13T21:57:18.174Z,9.80
2023-03-13T21:59:46.347Z,9.70
2023-03-13T22:02:15.742Z,9.70
2023-03-13T22:04:43.886Z,9.70
2023-03-13T22:07:12.053Z,9.70
2023-03-13T22:09:40.027Z,9.70
2023-03-13T22:12:08.258Z,9.80
2023-03-13T22:14:36.349Z,9.80
2023-03-13T22:17:04.500Z,9.80
2023-03-13T22:19:34.363Z,9.80
2023-03-13T22:22:02.421Z,9.80
2023-03-13T22:24:30.361Z,9.80
2023-03-13T22:26:58.318Z,9.80
2023-03-13T22:29:30.671Z,9.80
2023-03-13T22:31:58.910Z,9.80
2023-03-13T22:34:26.937Z,9.80
2023-03-13T22:36:56.340Z,9.80
2023-03-13T22:39:24.508Z,9.80
2023-03-13T22:41:52.460Z,9.80
2023-03-13T22:44:21.624Z,9.90
2023-03-13T22:46:49.623Z,9.80
2023-03-13T22:49:17.564Z,9.90
2023-03-13T22:51:45.653Z,9.90
2023-03-13T22:54:14.973Z,10.00
2023-03-13T22:56:42.918Z,10.00
2023-03-13T22:59:10.818Z,10.00
2023-03-13T23:01:38.868Z,10.00
2023-03-13T23:04:07.085Z,10.00
2023-03-13T23:06:35.111Z,10.10
2023-03-13T23:09:03.353Z,10.10
2023-03-13T23:11:32.711Z,10.10
2023-03-13T23:14:00.693Z,10.20
2023-03-13T23:16:28.918Z,10.20
2023-03-13T23:18:56.846Z,10.20
2023-03-13T23:21:24.927Z,10.20
2023-03-13T23:23:55.079Z,10.20
2023-03-13T23:26:23.776Z,10.20
2023-03-13T23:28:53.275Z,10.20
2023-03-13T23:31:23.233Z,10.30
2023-03-13T23:33:51.338Z,10.30
2023-03-13T23:36:20.485Z,10.30
2023-03-13T23:38:51.105Z,10.20
2023-03-13T23:41:19.473Z,10.30
2023-03-13T23:43:47.694Z,10.30
2023-03-13T23:46:22.007Z,10.30
2023-03-13T23:48:53.048Z,10.30
2023-03-13T23:51:21.027Z,10.30
2023-03-13T23:53:49.050Z,10.30
2023-03-13T23:56:17.494Z,10.30
2023-03-13T23:58:45.470Z,10.50
